createdAt,value
2022-11-20T00:00:45.838Z,100173.21
2022-11-20T00:01:48.620Z,100168.97
2022-11-20T00:02:50.563Z,100161.33
2022-11-20T00:03:54.679Z,100171.56
2022-11-20T00:04:57.093Z,100176.70
2022-11-20T00:06:04.690Z,100167.38
2022-11-20T00:07:06.504Z,100174.17
2022-11-20T00:08:08.397Z,100177.61
2022-11-20T00:09:10.514Z,100183.63
2022-11-20T00:10:13.375Z,100183.63
2022-11-20T00:11:18.854Z,100187.05
2022-11-20T00:12:20.585Z,100186.20
2022-11-20T00:13:22.741Z,100192.16
2022-11-20T00:14:24.517Z,100191.20
2022-11-20T00:15:26.279Z,100194.64
2022-11-20T00:16:31.332Z,100196.33
2022-11-20T00:17:33.739Z,100201.44
2022-11-20T00:18:37.161Z,100205.77
2022-11-20T00:19:39.005Z,100210.05
2022-11-20T00:20:41.069Z,100212.60
2022-11-20T00:21:42.820Z,100216.84
2022-11-20T00:22:44.532Z,100217.69
2022-11-20T00:23:47.598Z,100222.87
2022-11-20T00:24:49.877Z,100214.26
2022-11-20T00:25:52.117Z,100220.25
2022-11-20T00:26:53.880Z,100207.42
2022-11-20T00:27:55.530Z,100212.48
2022-11-20T00:29:00.536Z,100209.89
2022-11-20T00:30:04.368Z,100209.92
2022-11-20T00:31:09.973Z,100214.13
2022-11-20T00:32:11.801Z,100213.25
2022-11-20T00:33:13.710Z,100212.44
2022-11-20T00:34:15.469Z,100211.60
2022-11-20T00:35:17.284Z,100211.60
2022-11-20T00:36:26.607Z,100203.89
2022-11-20T00:37:28.864Z,100204.80
2022-11-20T00:38:31.891Z,100206.45
2022-11-20T00:39:33.736Z,100203.02
2022-11-20T00:40:35.834Z,100210.77
2022-11-20T00:41:37.911Z,100214.16
2022-11-20T00:42:39.742Z,100220.14
2022-11-20T00:43:41.884Z,100226.98
2022-11-20T00:44:43.682Z,100223.47
2022-11-20T00:45:45.432Z,100226.06
2022-11-20T00:46:47.143Z,100226.06
2022-11-20T00:47:49.394Z,100224.42
2022-11-20T00:48:51.266Z,100231.19
2022-11-20T00:49:53.396Z,100236.30
2022-11-20T00:50:56.093Z,100239.70
2022-11-20T00:51:57.791Z,100237.20
2022-11-20T00:52:59.394Z,100235.49
2022-11-20T00:54:01.588Z,100232.90
2022-11-20T00:55:04.398Z,100226.91
2022-11-20T00:56:11.346Z,100235.42
2022-11-20T00:57:13.160Z,100232.90
2022-11-20T00:58:15.012Z,100224.42
2022-11-20T00:59:16.723Z,100232.09
2022-11-20T01:00:19.341Z,100230.22
2022-11-20T01:01:24.112Z,100223.23
2022-11-20T01:02:26.040Z,100229.95
2022-11-20T01:03:30.482Z,100227.45
2022-11-20T01:04:32.460Z,100217.32
2022-11-20T01:05:35.611Z,100217.32
2022-11-20T01:06:38.968Z,100225.91
2022-11-20T01:07:41.856Z,100224.27
2022-11-20T01:08:44.939Z,100214.08
2022-11-20T01:09:46.799Z,100216.64
2022-11-20T01:10:48.683Z,100209.84
2022-11-20T01:11:50.569Z,100205.58
2022-11-20T01:12:52.422Z,100215.84
2022-11-20T01:13:56.328Z,100217.59
2022-11-20T01:14:58.302Z,100209.11
2022-11-20T01:16:05.289Z,100204.88
2022-11-20T01:17:07.143Z,100211.73
2022-11-20T01:18:10.099Z,100208.36
2022-11-20T01:19:17.946Z,100207.52
2022-11-20T01:20:19.340Z,100211.76
2022-11-20T01:21:24.098Z,100220.31
2022-11-20T01:22:26.098Z,100218.56
2022-11-20T01:23:34.512Z,100221.15
2022-11-20T01:24:36.429Z,100218.62
2022-11-20T01:25:38.279Z,100211.79
2022-11-20T01:26:41.800Z,100214.34
2022-11-20T01:27:43.663Z,100219.49
2022-11-20T01:28:47.133Z,100222.05
2022-11-20T01:29:49.925Z,100216.09
2022-11-20T01:30:51.786Z,100212.71
2022-11-20T01:31:53.866Z,100211.05
2022-11-20T01:32:56.117Z,100210.20
2022-11-20T01:34:01.205Z,100210.17
2022-11-20T01:35:03.469Z,100209.31
2022-11-20T01:36:06.974Z,100211.02
2022-11-20T01:37:08.913Z,100206.75
2022-11-20T01:38:11.768Z,100219.49
2022-11-20T01:39:17.239Z,100216.03
2022-11-20T01:40:19.256Z,100215.06
2022-11-20T01:41:21.609Z,100215.94
2022-11-20T01:42:23.267Z,100220.25
2022-11-20T01:43:25.529Z,100211.77
2022-11-20T01:44:49.318Z,100211.76
2022-11-20T01:46:00.920Z,100216.94
2022-11-20T01:47:05.421Z,100205.85
2022-11-20T01:48:07.930Z,100213.58
2022-11-20T01:49:30.657Z,100214.42
2022-11-20T01:50:32.726Z,100211.89
2022-11-20T01:51:41.094Z,100211.05
2022-11-20T01:52:49.365Z,100207.68
2022-11-20T01:53:54.573Z,100211.95
2022-11-20T01:55:06.462Z,100210.21
2022-11-20T01:56:12.270Z,100224.75
2022-11-20T01:57:18.172Z,100232.43
2022-11-20T01:58:23.766Z,100226.47
2022-11-20T01:59:28.393Z,100228.13
2022-11-20T02:00:31.518Z,100236.53
2022-11-20T02:01:34.612Z,100232.23
2022-11-20T02:02:39.545Z,100235.66
2022-11-20T02:03:42.378Z,100245.08
2022-11-20T02:04:45.839Z,100244.23
2022-11-20T02:06:15.799Z,100245.11
2022-11-20T02:07:19.101Z,100244.27
2022-11-20T02:08:24.583Z,100236.61
2022-11-20T02:09:27.509Z,100243.42
2022-11-20T02:10:30.195Z,100238.30
2022-11-20T02:11:32.364Z,100226.38
2022-11-20T02:12:34.249Z,100228.95
2022-11-20T02:13:36.373Z,100234.08
2022-11-20T02:14:38.308Z,100238.33
2022-11-20T02:15:41.201Z,100241.76
2022-11-20T02:16:49.589Z,100245.98
2022-11-20T02:17:51.829Z,100249.41
2022-11-20T02:19:00.420Z,100251.88
2022-11-20T02:20:03.455Z,100245.02
2022-11-20T02:21:09.089Z,100240.53
2022-11-20T02:22:20.699Z,100239.80
2022-11-20T02:23:26.259Z,100237.24
2022-11-20T02:24:28.609Z,100239.80
2022-11-20T02:25:33.310Z,100230.45
2022-11-20T02:26:38.891Z,100221.87
2022-11-20T02:27:41.253Z,100221.87
2022-11-20T02:28:43.330Z,100235.45
2022-11-20T02:29:48.909Z,100248.08
2022-11-20T02:30:50.860Z,100247.28
2022-11-20T02:31:55.525Z,100246.48
2022-11-20T02:32:58.919Z,100256.79
2022-11-20T02:34:01.912Z,100256.80
2022-11-20T02:35:22.126Z,100251.72
2022-11-20T02:36:27.895Z,100251.72
2022-11-20T02:37:33.330Z,100253.50
2022-11-20T02:38:35.605Z,100258.58
2022-11-20T02:39:37.600Z,100260.30
2022-11-20T02:40:39.592Z,100256.86
2022-11-20T02:41:41.520Z,100261.98
2022-11-20T02:42:44.258Z,100265.42
2022-11-20T02:43:46.083Z,100265.42
2022-11-20T02:44:47.800Z,100258.62
2022-11-20T02:45:50.272Z,100256.97
2022-11-20T02:46:52.290Z,100260.34
2022-11-20T02:47:54.413Z,100255.22
2022-11-20T02:48:56.308Z,100253.50
2022-11-20T02:49:58.773Z,100250.11
2022-11-20T02:51:00.779Z,100250.11
2022-11-20T02:52:02.645Z,100243.30
2022-11-20T02:53:04.876Z,100243.34
2022-11-20T02:54:06.540Z,100242.52
2022-11-20T02:55:08.828Z,100242.52
2022-11-20T02:56:13.309Z,100251.97
2022-11-20T02:57:15.203Z,100255.28
2022-11-20T02:58:16.978Z,100247.61
2022-11-20T02:59:18.996Z,100246.73
2022-11-20T03:00:21.246Z,100239.88
2022-11-20T03:01:23.200Z,100247.58
2022-11-20T03:02:25.241Z,100245.89
2022-11-20T03:03:26.956Z,100245.05
2022-11-20T03:04:28.810Z,100241.68
2022-11-20T03:05:30.601Z,100244.30
2022-11-20T03:06:33.094Z,100246.85
2022-11-20T03:07:34.772Z,100255.31
2022-11-20T03:08:36.944Z,100255.34
2022-11-20T03:09:38.737Z,100253.63
2022-11-20T03:10:40.589Z,100257.94
2022-11-20T03:11:42.496Z,100243.45
2022-11-20T03:12:44.540Z,100258.77
2022-11-20T03:13:46.464Z,100256.97
2022-11-20T03:14:52.841Z,100267.94
2022-11-20T03:15:51.821Z,100270.50
2022-11-20T03:16:53.537Z,100270.50
2022-11-20T03:17:55.971Z,100262.02
2022-11-20T03:18:57.979Z,100251.81
2022-11-20T03:19:59.738Z,100262.09
2022-11-20T03:21:01.692Z,100258.72
2022-11-20T03:22:03.603Z,100260.46
2022-11-20T03:23:05.377Z,100265.61
2022-11-20T03:24:08.903Z,100268.22
2022-11-20T03:25:10.641Z,100264.00
2022-11-20T03:26:21.462Z,100262.31
2022-11-20T03:27:23.296Z,100259.77
2022-11-20T03:28:24.926Z,100272.59
2022-11-20T03:29:26.947Z,100276.87
2022-11-20T03:30:30.758Z,100290.54
2022-11-20T03:31:36.875Z,100293.11
2022-11-20T03:32:38.858Z,100299.02
2022-11-20T03:33:42.644Z,100291.31
2022-11-20T03:34:45.166Z,100288.73
2022-11-20T03:35:47.152Z,100294.70
2022-11-20T03:36:50.070Z,100298.09
2022-11-20T03:37:51.811Z,100298.09
2022-11-20T03:38:55.060Z,100293.00
2022-11-20T03:39:57.243Z,100294.72
2022-11-20T03:41:04.599Z,100289.60
2022-11-20T03:42:06.427Z,100293.91
2022-11-20T03:43:10.055Z,100293.05
2022-11-20T03:44:12.716Z,100275.98
2022-11-20T03:45:17.461Z,100275.98
2022-11-20T03:46:20.558Z,100291.39
2022-11-20T03:47:22.546Z,100295.69
2022-11-20T03:48:25.660Z,100297.42
2022-11-20T03:49:27.653Z,100293.16
2022-11-20T03:50:29.720Z,100290.59
2022-11-20T03:51:33.884Z,100284.61
2022-11-20T03:52:35.814Z,100289.73
2022-11-20T03:53:38.531Z,100288.04
2022-11-20T03:54:40.203Z,100285.45
2022-11-20T03:55:42.239Z,100286.32
2022-11-20T03:56:44.027Z,100286.33
2022-11-20T03:57:45.658Z,100276.08
2022-11-20T03:58:47.364Z,100281.20
2022-11-20T03:59:49.297Z,100284.63
2022-11-20T04:00:51.372Z,100278.63
2022-11-20T04:01:53.168Z,100281.20
2022-11-20T04:02:59.843Z,100270.96
2022-11-20T04:04:01.991Z,100276.08
2022-11-20T04:05:04.595Z,100281.20
2022-11-20T04:06:12.058Z,100282.88
2022-11-20T04:07:13.838Z,100274.33
2022-11-20T04:08:15.804Z,100265.77
2022-11-20T04:09:17.416Z,100272.62
2022-11-20T04:10:19.592Z,100262.38
2022-11-20T04:11:24.465Z,100266.64
2022-11-20T04:12:26.229Z,100272.66
2022-11-20T04:13:28.389Z,100282.90
2022-11-20T04:14:30.769Z,100284.59
2022-11-20T04:15:38.122Z,100277.73
2022-11-20T04:16:36.879Z,100278.56
2022-11-20T04:17:38.726Z,100267.47
2022-11-20T04:18:40.793Z,100272.62
2022-11-20T04:19:42.703Z,100279.45
2022-11-20T04:20:44.559Z,100270.08
2022-11-20T04:21:46.873Z,100270.09
2022-11-20T04:22:48.660Z,100279.48
2022-11-20T04:23:51.919Z,100267.55
2022-11-20T04:24:53.747Z,100277.81
2022-11-20T04:25:57.687Z,100276.11
2022-11-20T04:26:59.588Z,100280.39
2022-11-20T04:28:01.453Z,100276.95
2022-11-20T04:29:04.529Z,100279.55
2022-11-20T04:30:07.757Z,100271.84
2022-11-20T04:31:12.758Z,100278.67
2022-11-20T04:32:14.655Z,100267.59
2022-11-20T04:33:16.383Z,100278.69
2022-11-20T04:34:18.156Z,100277.81
2022-11-20T04:35:19.976Z,100276.12
2022-11-20T04:36:24.732Z,100276.11
2022-11-20T04:37:26.547Z,100274.43
2022-11-20T04:38:28.399Z,100275.28
2022-11-20T04:39:30.006Z,100274.42
2022-11-20T04:40:31.938Z,100274.44
2022-11-20T04:41:36.680Z,100270.15
2022-11-20T04:42:38.468Z,100272.73
2022-11-20T04:43:40.097Z,100267.61
2022-11-20T04:44:41.837Z,100266.77
2022-11-20T04:45:43.461Z,100265.91
2022-11-20T04:46:45.197Z,100259.06
2022-11-20T04:47:46.822Z,100259.90
2022-11-20T04:48:48.473Z,100253.94
2022-11-20T04:49:50.536Z,100252.23
2022-11-20T04:50:53.108Z,100247.09
2022-11-20T04:51:55.483Z,100249.66
2022-11-20T04:52:57.306Z,100241.09
2022-11-20T04:53:59.207Z,100242.83
2022-11-20T04:55:00.953Z,100229.14
2022-11-20T04:56:05.735Z,100229.14
2022-11-20T04:57:12.898Z,100240.23
2022-11-20T04:58:11.945Z,100241.09
2022-11-20T04:59:14.085Z,100243.67
2022-11-20T05:00:17.080Z,100240.26
2022-11-20T05:01:23.484Z,100236.00
2022-11-20T05:02:25.887Z,100230.02
2022-11-20T05:03:27.934Z,100228.30
2022-11-20T05:04:29.830Z,100233.42
2022-11-20T05:05:32.054Z,100230.86
2022-11-20T05:06:34.350Z,100230.02
2022-11-20T05:07:36.260Z,100231.73
2022-11-20T05:08:38.624Z,100226.60
2022-11-20T05:09:40.625Z,100224.04
2022-11-20T05:10:42.428Z,100224.04
2022-11-20T05:11:46.225Z,100216.35
2022-11-20T05:12:48.091Z,100217.22
2022-11-20T05:13:51.680Z,100218.05
2022-11-20T05:14:53.887Z,100219.77
2022-11-20T05:15:55.863Z,100212.92
2022-11-20T05:16:57.706Z,100218.06
2022-11-20T05:17:59.332Z,100218.06
2022-11-20T05:19:01.069Z,100206.09
2022-11-20T05:20:03.360Z,100212.94
2022-11-20T05:21:06.801Z,100213.77
2022-11-20T05:22:09.098Z,100205.26
2022-11-20T05:23:10.927Z,100205.23
2022-11-20T05:24:12.728Z,100214.64
2022-11-20T05:25:15.128Z,100212.92
2022-11-20T05:26:21.417Z,100221.47
2022-11-20T05:27:23.284Z,100228.30
2022-11-20T05:28:25.910Z,100223.16
2022-11-20T05:29:27.712Z,100224.00
2022-11-20T05:30:29.626Z,100223.14
2022-11-20T05:31:32.417Z,100220.59
2022-11-20T05:32:34.698Z,100217.17
2022-11-20T05:33:37.081Z,100217.17
2022-11-20T05:34:39.280Z,100215.42
2022-11-20T05:35:41.303Z,100206.05
2022-11-20T05:36:43.178Z,100196.66
2022-11-20T05:37:45.031Z,100197.51
2022-11-20T05:38:50.641Z,100188.97
2022-11-20T05:39:51.199Z,100185.56
2022-11-20T05:40:53.027Z,100178.73
2022-11-20T05:41:55.021Z,100180.44
2022-11-20T05:42:56.846Z,100185.52
2022-11-20T05:43:58.788Z,100182.06
2022-11-20T05:45:02.614Z,100188.85
2022-11-20T05:46:06.332Z,100189.72
2022-11-20T05:47:08.289Z,100185.46
2022-11-20T05:48:09.917Z,100183.77
2022-11-20T05:49:13.446Z,100192.34
2022-11-20T05:50:17.484Z,100191.48
2022-11-20T05:51:19.880Z,100194.05
2022-11-20T05:52:21.698Z,100197.47
2022-11-20T05:53:25.515Z,100194.05
2022-11-20T05:54:27.412Z,100203.47
2022-11-20T05:55:30.108Z,100191.50
2022-11-20T05:56:31.973Z,100204.35
2022-11-20T05:57:33.807Z,100191.53
2022-11-20T05:58:36.353Z,100198.36
2022-11-20T05:59:39.355Z,100206.05
2022-11-20T06:00:41.726Z,100205.96
2022-11-20T06:01:45.670Z,100209.34
2022-11-20T06:02:47.539Z,100203.36
2022-11-20T06:03:50.715Z,100201.58
2022-11-20T06:04:52.598Z,100204.00
2022-11-20T06:05:54.342Z,100203.02
2022-11-20T06:06:56.277Z,100206.41
2022-11-20T06:07:58.028Z,100204.77
2022-11-20T06:08:59.941Z,100212.52
2022-11-20T06:10:01.982Z,100201.44
2022-11-20T06:11:05.878Z,100212.48
2022-11-20T06:12:08.294Z,100206.52
2022-11-20T06:13:09.972Z,100206.45
2022-11-20T06:14:11.915Z,100200.39
2022-11-20T06:15:13.932Z,100203.78
2022-11-20T06:16:20.331Z,100209.73
2022-11-20T06:17:22.901Z,100214.08
2022-11-20T06:18:29.399Z,100210.61
2022-11-20T06:19:31.500Z,100214.92
2022-11-20T06:20:37.864Z,100211.50
2022-11-20T06:21:37.167Z,100204.73
2022-11-20T06:22:38.911Z,100206.52
2022-11-20T06:23:41.541Z,100210.89
2022-11-20T06:24:43.483Z,100210.08
2022-11-20T06:25:45.264Z,100210.97
2022-11-20T06:26:47.092Z,100207.62
2022-11-20T06:27:48.902Z,100208.53
2022-11-20T06:28:52.161Z,100215.38
2022-11-20T06:29:54.101Z,100209.45
2022-11-20T06:30:56.534Z,100209.47
2022-11-20T06:31:58.411Z,100198.38
2022-11-20T06:33:00.569Z,100197.53
2022-11-20T06:34:02.907Z,100199.25
2022-11-20T06:35:06.584Z,100197.55
2022-11-20T06:36:12.459Z,100200.13
2022-11-20T06:37:14.713Z,100202.67
2022-11-20T06:38:16.685Z,100211.22
2022-11-20T06:39:18.683Z,100212.94
2022-11-20T06:40:21.403Z,100204.38
2022-11-20T06:41:23.346Z,100206.95
2022-11-20T06:42:25.680Z,100207.81
2022-11-20T06:43:29.579Z,100204.39
2022-11-20T06:44:31.505Z,100210.37
2022-11-20T06:45:33.604Z,100206.95
2022-11-20T06:46:35.534Z,100212.94
2022-11-20T06:47:37.285Z,100202.67
2022-11-20T06:48:40.026Z,100202.67
2022-11-20T06:49:42.111Z,100200.11
2022-11-20T06:50:44.164Z,100194.14
2022-11-20T06:51:45.912Z,100195.84
2022-11-20T06:52:47.728Z,100183.03
2022-11-20T06:53:49.986Z,100188.16
2022-11-20T06:54:51.887Z,100177.04
2022-11-20T06:55:57.106Z,100180.44
2022-11-20T06:56:59.250Z,100175.31
2022-11-20T06:58:01.527Z,100180.42
2022-11-20T06:59:07.671Z,100185.56
2022-11-20T07:00:13.272Z,100182.98
2022-11-20T07:01:15.927Z,100178.72
2022-11-20T07:02:17.841Z,100178.72
2022-11-20T07:03:21.741Z,100182.13
2022-11-20T07:04:23.692Z,100179.53
2022-11-20T07:05:25.403Z,100187.21
2022-11-20T07:06:29.403Z,100187.22
2022-11-20T07:07:31.261Z,100195.75
2022-11-20T07:08:34.159Z,100190.59
2022-11-20T07:09:35.836Z,100178.63
2022-11-20T07:10:38.215Z,100180.36
2022-11-20T07:11:40.218Z,100186.34
2022-11-20T07:12:41.842Z,100190.64
2022-11-20T07:13:43.806Z,100193.20
2022-11-20T07:14:45.696Z,100188.97
2022-11-20T07:15:48.484Z,100194.92
2022-11-20T07:16:50.538Z,100178.70
2022-11-20T07:17:52.685Z,100182.94
2022-11-20T07:18:54.809Z,100181.23
2022-11-20T07:19:56.569Z,100181.23
2022-11-20T07:21:09.780Z,100163.24
2022-11-20T07:22:12.028Z,100162.41
2022-11-20T07:23:14.933Z,100164.92
2022-11-20T07:24:17.270Z,100170.90
2022-11-20T07:25:19.716Z,100176.05
2022-11-20T07:26:21.522Z,100170.92
2022-11-20T07:27:23.137Z,100167.48
2022-11-20T07:28:24.943Z,100170.88
2022-11-20T07:29:26.793Z,100167.44
2022-11-20T07:30:29.649Z,100163.14
2022-11-20T07:31:31.697Z,100158.84
2022-11-20T07:32:33.585Z,100159.72
2022-11-20T07:33:35.543Z,100166.58
2022-11-20T07:34:37.186Z,100168.29
2022-11-20T07:35:39.138Z,100176.00
2022-11-20T07:36:41.555Z,100170.86
2022-11-20T07:37:43.448Z,100171.70
2022-11-20T07:38:45.196Z,100176.84
2022-11-20T07:39:47.456Z,100176.84
2022-11-20T07:40:53.057Z,100174.23
2022-11-20T07:41:55.855Z,100176.77
2022-11-20T07:42:57.732Z,100177.59
2022-11-20T07:44:00.728Z,100171.56
2022-11-20T07:45:02.876Z,100174.11
2022-11-20T07:46:05.175Z,100175.83
2022-11-20T07:47:06.944Z,100170.69
2022-11-20T07:48:08.683Z,100180.09
2022-11-20T07:49:10.558Z,100169.78
2022-11-20T07:50:14.049Z,100173.19
2022-11-20T07:51:15.968Z,100159.50
2022-11-20T07:52:17.888Z,100156.99
2022-11-20T07:53:19.508Z,100151.88
2022-11-20T07:54:22.316Z,100151.84
2022-11-20T07:55:24.182Z,100148.41
2022-11-20T07:56:25.948Z,100152.66
2022-11-20T07:57:28.616Z,100162.92
2022-11-20T07:58:32.167Z,100162.88
2022-11-20T07:59:34.036Z,100166.28
2022-11-20T08:00:36.013Z,100177.41
2022-11-20T08:01:39.037Z,100179.17
2022-11-20T08:02:41.775Z,100173.16
2022-11-20T08:03:43.556Z,100173.12
2022-11-20T08:04:45.291Z,100176.55
2022-11-20T08:05:47.434Z,100173.20
2022-11-20T08:06:50.653Z,100182.73
2022-11-20T08:07:52.672Z,100179.33
2022-11-20T08:08:54.366Z,100171.71
2022-11-20T08:09:55.980Z,100176.83
2022-11-20T08:10:58.850Z,100173.47
2022-11-20T08:12:02.666Z,100164.94
2022-11-20T08:13:04.811Z,100166.67
2022-11-20T08:14:06.692Z,100166.73
2022-11-20T08:15:13.061Z,100162.44
2022-11-20T08:16:14.775Z,100162.41
2022-11-20T08:17:17.128Z,100166.67
2022-11-20T08:18:34.894Z,100159.84
2022-11-20T08:19:23.718Z,100155.56
2022-11-20T08:20:26.371Z,100150.41
2022-11-20T08:21:28.153Z,100150.34
2022-11-20T08:22:31.733Z,100152.87
2022-11-20T08:23:33.865Z,100147.70
2022-11-20T08:24:35.491Z,100138.25
2022-11-20T08:25:39.597Z,100143.34
2022-11-20T08:26:41.544Z,100145.87
2022-11-20T08:27:43.326Z,100133.86
2022-11-20T08:28:45.217Z,100140.64
2022-11-20T08:29:48.163Z,100132.00
2022-11-20T08:30:52.558Z,100132.78
2022-11-20T08:31:54.402Z,100127.80
2022-11-20T08:33:02.703Z,100133.77
2022-11-20T08:34:09.164Z,100131.20
2022-11-20T08:35:09.122Z,100126.03
2022-11-20T08:36:11.989Z,100134.55
2022-11-20T08:37:13.766Z,100132.00
2022-11-20T08:38:15.420Z,100132.00
2022-11-20T08:39:18.105Z,100139.69
2022-11-20T08:40:20.014Z,100125.94
2022-11-20T08:41:22.716Z,100113.10
2022-11-20T08:42:24.464Z,100113.10
2022-11-20T08:43:26.202Z,100128.48
2022-11-20T08:44:28.400Z,100123.34
2022-11-20T08:45:34.014Z,100125.86
2022-11-20T08:46:39.327Z,100129.22
2022-11-20T08:47:41.483Z,100123.21
2022-11-20T08:48:43.981Z,100127.45
2022-11-20T08:49:46.349Z,100128.30
2022-11-20T08:50:48.277Z,100130.83
2022-11-20T08:51:50.520Z,100129.97
2022-11-20T08:52:52.206Z,100129.96
2022-11-20T08:53:54.086Z,100135.11
2022-11-20T08:54:56.266Z,100133.49
2022-11-20T08:55:58.772Z,100134.36
2022-11-20T08:57:01.737Z,100132.66
2022-11-20T08:58:04.830Z,100131.84
2022-11-20T09:00:13.485Z,100129.51
2022-11-20T09:01:15.990Z,100128.75
2022-11-20T09:02:18.461Z,100133.94
2022-11-20T09:03:20.890Z,100147.67
2022-11-20T09:04:22.734Z,100136.54
2022-11-20T09:05:24.942Z,100140.86
2022-11-20T09:06:26.947Z,100137.43
2022-11-20T09:07:30.087Z,100132.30
2022-11-20T09:08:32.917Z,100132.33
2022-11-20T09:09:34.611Z,100127.20
2022-11-20T09:10:37.127Z,100127.27
2022-11-20T09:11:38.901Z,100127.27
2022-11-20T09:12:40.564Z,100131.57
2022-11-20T09:13:42.169Z,100127.30
2022-11-20T09:14:43.823Z,100125.52
2022-11-20T09:15:45.421Z,100120.34
2022-11-20T09:16:47.258Z,100115.14
2022-11-20T09:17:56.877Z,100105.69
2022-11-20T09:19:20.707Z,100094.64
2022-11-20T09:20:05.272Z,100087.92
2022-11-20T09:21:10.835Z,100070.87
2022-11-20T09:22:13.172Z,100072.61
2022-11-20T09:23:15.791Z,100082.06
2022-11-20T09:24:18.180Z,100084.69
2022-11-20T09:25:20.014Z,100094.08
2022-11-20T09:26:22.211Z,100083.80
2022-11-20T09:27:23.930Z,100083.80
2022-11-20T09:28:27.240Z,100096.58
2022-11-20T09:29:29.356Z,100107.68
2022-11-20T09:30:31.483Z,100120.45
2022-11-20T09:31:33.281Z,100109.30
2022-11-20T09:32:35.006Z,100103.25
2022-11-20T09:33:36.845Z,100099.78
2022-11-20T09:34:38.577Z,100104.02
2022-11-20T09:35:41.402Z,100100.53
2022-11-20T09:36:43.456Z,100099.60
2022-11-20T09:37:45.619Z,100087.63
2022-11-20T09:38:47.913Z,100091.87
2022-11-20T09:39:51.131Z,100082.44
2022-11-20T09:40:58.982Z,100082.42
2022-11-20T09:42:10.804Z,100072.20
2022-11-20T09:43:32.325Z,100071.52
2022-11-20T09:44:56.688Z,100068.19
2022-11-20T09:46:20.326Z,100067.41
2022-11-20T09:47:59.752Z,100056.31
2022-11-20T09:49:20.343Z,100056.39
2022-11-20T09:50:29.133Z,100069.27
2022-11-20T09:51:55.879Z,100052.14
2022-11-20T09:53:16.650Z,100056.41
2022-11-20T09:54:21.184Z,100054.66
2022-11-20T09:55:23.606Z,100053.80
2022-11-20T09:56:26.910Z,100057.24
2022-11-20T09:57:38.167Z,100058.07
2022-11-20T09:58:50.210Z,100052.02
2022-11-20T09:59:58.962Z,100055.44
2022-11-20T10:01:14.311Z,100049.36
2022-11-20T10:02:26.520Z,100043.29
2022-11-20T10:03:40.807Z,100044.07
2022-11-20T10:04:47.356Z,100048.30
2022-11-20T10:05:53.020Z,100045.66
2022-11-20T10:07:30.388Z,100046.47
2022-11-20T10:08:21.020Z,100036.20
2022-11-20T10:09:35.628Z,100039.67
2022-11-20T10:10:46.436Z,100037.11
2022-11-20T10:12:02.032Z,100036.23
2022-11-20T10:13:29.085Z,100034.48
2022-11-20T10:14:37.290Z,100031.82
2022-11-20T10:15:45.772Z,100025.01
2022-11-20T10:17:08.395Z,100022.42
2022-11-20T10:18:23.191Z,100024.97
2022-11-20T10:19:32.808Z,100022.89
2022-11-20T10:20:44.400Z,100027.33
2022-11-20T10:22:02.528Z,100019.62
2022-11-20T10:23:25.613Z,100016.13
2022-11-20T10:24:54.218Z,100025.52
2022-11-20T10:26:05.992Z,100016.16
2022-11-20T10:27:17.274Z,100023.78
2022-11-20T10:28:41.603Z,100016.00
2022-11-20T10:29:47.507Z,100014.20
2022-11-20T10:30:54.308Z,100010.81
2022-11-20T10:31:59.877Z,100010.67
2022-11-20T10:33:11.534Z,100016.66
2022-11-20T10:34:22.985Z,100012.58
2022-11-20T10:35:42.894Z,100009.06
2022-11-20T10:36:48.570Z,100014.95
2022-11-20T10:37:56.839Z,100007.97
2022-11-20T10:39:08.038Z,100007.45
2022-11-20T10:40:40.048Z,100004.88
2022-11-20T10:41:44.064Z,100008.46
2022-11-20T10:42:49.664Z,100008.55
2022-11-20T10:44:07.491Z,100011.06
2022-11-20T10:45:16.775Z,100005.86
2022-11-20T10:46:24.141Z,99995.45
2022-11-20T10:47:27.876Z,99992.81
2022-11-20T10:48:31.949Z,99995.26
2022-11-20T10:49:34.874Z,99992.56
2022-11-20T10:50:40.496Z,99988.23
2022-11-20T10:51:56.955Z,99993.36
2022-11-20T10:53:20.703Z,99989.88
2022-11-20T10:54:49.418Z,99991.48
2022-11-20T10:56:00.932Z,100000.22
2022-11-20T10:58:38.830Z,100001.36
2022-11-20T11:00:02.881Z,99997.13
2022-11-20T11:01:17.945Z,99997.12
2022-11-20T11:02:23.172Z,99994.51
2022-11-20T11:03:28.705Z,99997.12
2022-11-20T11:04:47.312Z,99999.11
2022-11-20T11:06:11.244Z,100002.58
2022-11-20T11:07:16.938Z,100000.88
2022-11-20T11:08:20.229Z,99999.95
2022-11-20T11:09:25.792Z,99993.05
2022-11-20T11:10:37.555Z,99987.94
2022-11-20T11:11:39.587Z,99984.49
2022-11-20T11:12:45.070Z,99985.28
2022-11-20T11:13:46.899Z,99972.41
2022-11-20T11:14:51.361Z,99974.92
2022-11-20T11:15:54.803Z,99975.88
2022-11-20T11:16:58.262Z,99974.92
2022-11-20T11:18:00.201Z,99974.92
2022-11-20T11:19:08.211Z,99985.19
2022-11-20T11:20:21.898Z,99986.00
2022-11-20T11:21:25.447Z,99988.60
2022-11-20T11:22:34.257Z,99988.61
2022-11-20T11:23:42.229Z,99988.58
2022-11-20T11:24:52.769Z,99985.15
2022-11-20T11:25:59.667Z,99978.28
2022-11-20T11:27:04.656Z,99971.45
2022-11-20T11:28:21.986Z,99973.11
2022-11-20T11:29:24.481Z,99978.40
2022-11-20T11:30:29.354Z,99984.47
2022-11-20T11:31:34.222Z,99987.95
2022-11-20T11:32:36.150Z,99985.45
2022-11-20T11:33:38.106Z,99985.41
2022-11-20T11:34:40.325Z,99975.06
2022-11-20T11:36:59.547Z,99975.19
2022-11-20T11:38:08.306Z,99969.33
2022-11-20T11:39:17.450Z,99961.61
2022-11-20T11:40:24.346Z,99947.89
2022-11-20T11:41:30.467Z,99954.67
2022-11-20T11:42:33.412Z,99952.91
2022-11-20T11:43:38.473Z,99945.18
2022-11-20T11:44:44.648Z,99936.59
2022-11-20T11:45:56.455Z,99930.69
2022-11-20T11:46:58.796Z,99941.02
2022-11-20T11:48:04.127Z,99937.68
2022-11-20T11:49:12.726Z,99937.65
2022-11-20T11:50:20.201Z,99932.55
2022-11-20T11:51:23.202Z,99935.94
2022-11-20T11:52:26.711Z,99943.61
2022-11-20T11:53:30.580Z,99952.22
2022-11-20T11:54:46.112Z,99959.94
2022-11-20T11:55:57.862Z,99959.97
2022-11-20T11:57:04.626Z,99970.33
2022-11-20T11:58:33.036Z,99976.30
2022-11-20T12:00:04.552Z,99976.28
2022-11-20T12:01:16.090Z,99969.50
2022-11-20T12:02:40.224Z,99961.80
2022-11-20T12:03:45.164Z,99958.39
2022-11-20T12:04:53.424Z,99955.02
2022-11-20T12:06:01.997Z,99955.87
2022-11-20T12:07:50.588Z,99959.27
2022-11-20T12:08:50.251Z,99958.44
2022-11-20T12:09:55.590Z,99947.37
2022-11-20T12:11:26.924Z,99937.12
2022-11-20T12:12:33.067Z,99928.56
2022-11-20T12:13:38.585Z,99934.53
2022-11-20T12:14:44.289Z,99936.23
2022-11-20T12:15:48.329Z,99929.42
2022-11-20T12:18:21.622Z,99919.09
2022-11-20T12:19:25.012Z,99915.73
2022-11-20T12:20:31.937Z,99921.79
2022-11-20T12:21:40.976Z,99924.36
2022-11-20T12:22:59.805Z,99926.05
2022-11-20T12:24:08.340Z,99927.73